createdAt,value
2022-09-05T00:02:39.205Z,99.90
2022-09-05T00:05:28.447Z,99.90
2022-09-05T00:08:06.190Z,99.90
2022-09-05T00:10:50.418Z,99.90
2022-09-05T00:13:35.619Z,99.90
2022-09-05T00:16:30.304Z,99.90
2022-09-05T00:22:20.109Z,99.90
2022-09-05T00:24:34.755Z,99.90
2022-09-05T00:25:30.691Z,99.90
2022-09-05T00:28:25.185Z,99.90
2022-09-05T00:31:55.223Z,99.90
2022-09-05T00:34:11.941Z,99.90
2022-09-05T00:36:46.437Z,99.90
2022-09-05T00:39:19.154Z,99.90
2022-09-05T00:41:50.583Z,99.90
2022-09-05T00:44:21.756Z,99.90
2022-09-05T00:47:02.131Z,99.90
2022-09-05T00:49:38.437Z,99.90
2022-09-05T00:52:11.903Z,99.90
2022-09-05T00:54:54.623Z,99.90
2022-09-05T00:57:47.912Z,99.90
2022-09-05T01:00:19.875Z,99.90
2022-09-05T01:03:30.852Z,99.90
2022-09-05T01:06:27.789Z,99.90
2022-09-05T01:09:32.486Z,99.90
2022-09-05T01:12:17.060Z,99.90
2022-09-05T01:15:14.543Z,99.90
2022-09-05T01:18:04.130Z,99.90
2022-09-05T01:20:44.426Z,99.90
2022-09-05T01:23:45.511Z,99.90
2022-09-05T01:26:49.094Z,99.90
2022-09-05T01:29:26.685Z,99.90
2022-09-05T01:32:10.301Z,99.90
2022-09-05T01:34:50.420Z,99.90
2022-09-05T01:37:29.657Z,99.90
2022-09-05T01:40:16.910Z,99.90
2022-09-05T01:42:58.757Z,99.90
2022-09-05T01:45:42.167Z,99.90
2022-09-05T01:48:22.441Z,99.90
2022-09-05T01:50:58.108Z,99.90
2022-09-05T01:53:39.882Z,99.90
2022-09-05T01:56:30.029Z,99.90
2022-09-05T01:59:09.301Z,99.90
2022-09-05T02:01:55.772Z,99.90
2022-09-05T02:04:43.586Z,99.90
2022-09-05T02:07:30.874Z,99.90
2022-09-05T02:10:45.377Z,99.90
2022-09-05T02:13:19.534Z,99.90
2022-09-05T02:15:59.031Z,99.90
2022-09-05T02:18:39.190Z,99.90
2022-09-05T02:21:19.433Z,99.90
2022-09-05T02:23:54.084Z,99.90
2022-09-05T02:26:27.437Z,99.90
2022-09-05T02:29:01.082Z,99.90
2022-09-05T02:31:41.994Z,99.90
2022-09-05T02:34:14.678Z,99.90
2022-09-05T02:36:46.252Z,99.90
2022-09-05T02:45:01.379Z,99.90
2022-09-05T02:45:21.694Z,99.90
2022-09-05T02:45:27.295Z,99.90
2022-09-05T02:48:15.450Z,99.90
2022-09-05T02:54:09.285Z,99.90
2022-09-05T02:57:33.867Z,99.90
2022-09-05T02:57:35.597Z,99.90
2022-09-05T03:00:01.518Z,99.90
2022-09-05T03:02:36.825Z,99.90
2022-09-05T03:05:13.600Z,99.90
2022-09-05T03:08:08.874Z,99.90
2022-09-05T03:11:21.577Z,99.90
2022-09-05T03:14:47.784Z,99.90
2022-09-05T03:17:38.422Z,99.90
2022-09-05T03:20:42.563Z,99.90
2022-09-05T03:23:36.953Z,99.90
2022-09-05T03:26:37.668Z,99.90
2022-09-05T03:29:47.227Z,99.90
2022-09-05T03:32:49.214Z,99.90
2022-09-05T03:35:44.866Z,99.90
2022-09-05T03:38:47.143Z,99.90
2022-09-05T03:41:40.098Z,99.90
2022-09-05T03:44:25.800Z,99.90
2022-09-05T03:47:18.726Z,99.90
2022-09-05T03:52:23.373Z,99.90
2022-09-05T03:57:16.929Z,99.90
2022-09-05T03:57:27.818Z,99.90
2022-09-05T03:59:22.734Z,99.90
2022-09-05T04:02:57.925Z,99.90
2022-09-05T04:08:14.026Z,99.90
2022-09-05T04:08:15.371Z,99.90
2022-09-05T04:10:37.434Z,99.90
2022-09-05T04:13:09.921Z,99.90
2022-09-05T04:15:43.405Z,99.90
2022-09-05T04:18:32.706Z,99.90
2022-09-05T04:21:06.375Z,99.90
2022-09-05T04:23:47.683Z,99.90
2022-09-05T04:26:41.039Z,99.90
2022-09-05T04:29:17.354Z,99.90
2022-09-05T04:32:07.416Z,99.90
2022-09-05T04:34:56.895Z,99.90
2022-09-05T04:37:48.729Z,99.90
2022-09-05T04:40:37.019Z,99.90
2022-09-05T04:43:07.585Z,99.90
2022-09-05T04:45:40.378Z,99.90
2022-09-05T04:48:14.112Z,99.90
2022-09-05T04:51:15.676Z,99.90
2022-09-05T04:54:12.250Z,99.90
2022-09-05T04:56:46.212Z,99.90
2022-09-05T05:01:03.062Z,99.90
2022-09-05T05:06:10.847Z,99.90
2022-09-05T05:06:16.898Z,99.90
2022-09-05T05:08:13.666Z,99.90
2022-09-05T05:11:15.839Z,99.90
2022-09-05T05:17:55.151Z,99.90
2022-09-05T05:18:15.158Z,99.90
2022-09-05T05:19:30.930Z,99.90
2022-09-05T05:22:03.929Z,99.90
2022-09-05T05:24:35.246Z,99.90
2022-09-05T05:27:10.242Z,99.90
2022-09-05T05:29:49.470Z,99.90
2022-09-05T05:32:45.194Z,99.90
2022-09-05T05:35:13.152Z,99.90
2022-09-05T05:37:47.206Z,99.90
2022-09-05T05:40:21.857Z,99.90
2022-09-05T05:42:50.249Z,99.90
2022-09-05T05:45:20.829Z,99.90
2022-09-05T05:47:52.880Z,99.90
2022-09-05T05:50:39.024Z,99.90
2022-09-05T05:53:33.618Z,99.90
2022-09-05T05:56:29.699Z,99.90
2022-09-05T05:59:08.367Z,99.90
2022-09-05T06:02:16.745Z,99.90
2022-09-05T06:05:15.626Z,99.90
2022-09-05T06:10:41.709Z,99.90
2022-09-05T06:15:01.324Z,99.90
2022-09-05T06:15:09.153Z,99.90
2022-09-05T06:18:10.277Z,99.90
2022-09-05T06:22:08.806Z,99.90
2022-09-05T06:24:25.558Z,99.90
2022-09-05T06:27:22.819Z,99.90
2022-09-05T06:30:00.843Z,99.90
2022-09-05T06:32:50.196Z,99.90
2022-09-05T06:35:33.782Z,99.90
2022-09-05T06:38:12.379Z,99.90
2022-09-05T06:40:52.801Z,99.90
2022-09-05T06:43:35.234Z,99.90
2022-09-05T06:46:40.859Z,99.90
2022-09-05T06:49:28.353Z,99.90
2022-09-05T06:52:32.548Z,99.90
2022-09-05T06:55:32.005Z,99.90
2022-09-05T06:58:44.731Z,99.90
2022-09-05T07:01:17.582Z,99.90
2022-09-05T07:05:14.697Z,99.90
2022-09-05T07:07:10.340Z,99.90
2022-09-05T07:09:53.867Z,99.90
2022-09-05T07:12:30.252Z,99.90
2022-09-05T07:15:08.854Z,99.90
2022-09-05T07:18:09.917Z,99.90
2022-09-05T07:21:16.640Z,99.90
2022-09-05T07:24:09.897Z,99.90
2022-09-05T07:27:09.159Z,99.90
2022-09-05T07:29:52.441Z,99.90
2022-09-05T07:32:58.152Z,99.90
2022-09-05T07:35:48.251Z,99.90
2022-09-05T07:38:55.143Z,99.90
2022-09-05T07:42:00.339Z,99.90
2022-09-05T07:45:15.649Z,99.90
2022-09-05T08:21:35.658Z,99.90
2022-09-05T08:24:28.339Z,99.90
2022-09-05T08:27:10.090Z,99.90
2022-09-05T08:30:25.927Z,99.90
2022-09-05T08:33:20.788Z,99.90
2022-09-05T08:36:08.841Z,99.90
2022-09-05T08:38:51.281Z,99.90
2022-09-05T08:41:50.026Z,99.90
2022-09-05T08:46:43.266Z,99.90
2022-09-05T08:47:45.237Z,99.90
2022-09-05T08:50:55.674Z,99.90
2022-09-05T08:53:47.288Z,99.90
2022-09-05T08:56:30.486Z,99.90
2022-09-05T08:59:31.666Z,99.90
2022-09-05T09:02:46.936Z,99.90
2022-09-05T09:05:15.088Z,99.90
2022-09-05T09:08:12.769Z,99.90
2022-09-05T09:11:01.134Z,99.90
2022-09-05T09:14:01.126Z,99.90
2022-09-05T09:17:14.093Z,99.30
2022-09-05T09:19:55.918Z,99.10
2022-09-05T09:22:47.609Z,97.00
2022-09-05T09:25:30.716Z,96.30
2022-09-05T09:28:51.431Z,94.70
2022-09-05T09:31:37.969Z,96.90
2022-09-05T09:34:47.388Z,94.40
2022-09-05T09:37:50.718Z,93.40
2022-09-05T09:41:02.191Z,92.60
2022-09-05T09:44:05.258Z,91.90
2022-09-05T09:46:40.438Z,89.90
2022-09-05T09:49:30.003Z,84.30
2022-09-05T09:52:34.272Z,85.00
2022-09-05T09:55:39.132Z,83.10
2022-09-05T09:58:45.873Z,80.00
2022-09-05T10:01:36.739Z,78.30
2022-09-05T10:10:34.718Z,75.70
2022-09-05T10:10:50.760Z,73.70
2022-09-05T10:11:51.438Z,70.80
2022-09-05T10:14:50.826Z,69.40
2022-09-05T10:17:45.557Z,68.60
2022-09-05T10:21:15.337Z,68.90
2022-09-05T10:24:38.330Z,66.70
2022-09-05T10:27:46.599Z,62.90
2022-09-05T10:30:35.440Z,63.40
2022-09-05T10:35:15.023Z,61.20
2022-09-05T10:36:33.458Z,58.80
2022-09-05T10:39:21.832Z,58.40
2022-09-05T10:41:56.721Z,57.80
2022-09-05T10:44:40.491Z,56.90
2022-09-05T10:47:24.942Z,54.80
2022-09-05T10:50:05.260Z,53.90
2022-09-05T10:52:40.089Z,54.50
2022-09-05T10:55:18.736Z,52.00
2022-09-05T10:58:00.991Z,51.00
2022-09-05T11:02:22.429Z,50.00
2022-09-05T11:04:15.418Z,50.20
2022-09-05T11:07:19.022Z,48.50
2022-09-05T11:13:29.328Z,45.40
2022-09-05T11:16:25.434Z,45.00
2022-09-05T11:19:47.910Z,45.40
2022-09-05T11:22:53.050Z,44.80
2022-09-05T11:25:36.227Z,42.40
2022-09-05T11:28:16.196Z,42.20
2022-09-05T11:30:51.483Z,40.20
2022-09-05T11:38:47.716Z,39.00
2022-09-05T11:40:06.456Z,35.80
2022-09-05T11:40:29.976Z,32.10
2022-09-05T11:43:06.132Z,29.60
2022-09-05T11:46:02.921Z,29.70
2022-09-05T11:49:01.328Z,25.60
2022-09-05T11:52:01.932Z,26.90
2022-09-05T11:55:21.252Z,22.70
2022-09-05T11:58:43.218Z,21.00
2022-09-05T12:01:41.568Z,19.20
2022-09-05T12:04:27.637Z,18.00
2022-09-05T12:07:30.272Z,17.00
2022-09-05T12:10:46.074Z,16.60
2022-09-05T12:13:31.358Z,15.40
2022-09-05T12:16:08.119Z,13.10
2022-09-05T12:18:49.955Z,11.40
2022-09-05T12:21:29.548Z,10.60
2022-09-05T12:25:16.187Z,9.10
2022-09-05T12:27:44.016Z,7.50
2022-09-05T12:29:59.992Z,7.50
2022-09-05T12:34:49.129Z,5.40
2022-09-05T12:36:10.228Z,4.60
2022-09-05T12:41:01.347Z,1.00
2022-09-05T12:41:43.151Z,1.00
2022-09-05T12:44:42.346Z,1.00
2022-09-05T12:47:16.965Z,1.00
2022-09-05T12:50:02.502Z,1.00
2022-09-05T12:52:44.260Z,1.00
2022-09-05T12:55:22.396Z,1.00
2022-09-05T12:59:15.049Z,1.00
2022-09-05T13:03:08.862Z,1.00
2022-09-05T13:04:13.224Z,1.00
2022-09-05T13:06:39.210Z,1.00
2022-09-05T13:09:16.500Z,1.00
2022-09-05T13:14:49.703Z,1.00
2022-09-05T13:15:11.509Z,1.00
2022-09-05T13:17:47.214Z,1.00
2022-09-05T13:20:21.403Z,1.00
2022-09-05T13:22:50.967Z,1.00
2022-09-05T13:25:27.156Z,1.00
2022-09-05T13:28:01.506Z,1.00
2022-09-05T13:34:03.109Z,1.00
2022-09-05T13:38:03.850Z,1.00
2022-09-05T13:38:17.739Z,1.00
2022-09-05T13:39:14.413Z,1.00
2022-09-05T13:41:48.814Z,1.00
2022-09-05T13:44:26.676Z,1.00
2022-09-05T13:47:00.819Z,1.00
2022-09-05T13:49:37.217Z,1.00
2022-09-05T13:52:26.345Z,1.00
2022-09-05T13:55:05.524Z,1.00
2022-09-05T13:57:39.027Z,1.00
2022-09-05T14:01:05.004Z,1.00
2022-09-05T14:07:46.314Z,1.00
2022-09-05T14:10:37.062Z,1.00
2022-09-05T14:13:08.416Z,1.00
2022-09-05T14:15:43.192Z,1.00
2022-09-05T14:18:21.351Z,1.00
2022-09-05T14:21:13.728Z,1.00
2022-09-05T14:23:55.965Z,1.00
2022-09-05T14:26:28.578Z,1.00
2022-09-05T14:29:15.091Z,1.00
2022-09-05T14:37:37.483Z,1.00
2022-09-05T14:37:46.366Z,1.00
2022-09-05T14:38:09.578Z,1.00
2022-09-05T14:41:23.485Z,1.00
2022-09-05T14:44:29.784Z,1.00
2022-09-05T14:47:35.315Z,1.00
2022-09-05T14:50:29.289Z,1.00
2022-09-05T14:56:44.379Z,1.00
2022-09-05T15:02:48.284Z,1.00
2022-09-05T15:02:49.756Z,1.00
2022-09-05T15:04:44.679Z,1.00
2022-09-05T15:07:19.663Z,1.00
2022-09-05T15:12:18.120Z,1.00
2022-09-05T15:13:00.214Z,1.00
2022-09-05T15:15:31.863Z,1.00
2022-09-05T15:18:04.925Z,1.00
2022-09-05T15:51:06.637Z,1.00
2022-09-05T15:54:47.646Z,1.00
2022-09-05T15:57:35.837Z,1.00
2022-09-05T16:08:34.159Z,1.00
2022-09-05T16:11:07.717Z,1.00
2022-09-05T16:28:47.036Z,1.00
2022-09-05T16:35:01.872Z,1.00
2022-09-05T16:38:27.313Z,1.00
2022-09-05T16:42:04.667Z,1.00
2022-09-05T16:45:07.034Z,1.00
2022-09-05T16:48:04.640Z,1.00
2022-09-05T16:51:35.523Z,1.00
2022-09-05T16:54:34.809Z,1.00
2022-09-05T16:58:29.916Z,1.00
2022-09-05T17:01:18.288Z,1.00
2022-09-05T17:08:11.380Z,1.00
2022-09-05T17:10:40.293Z,2.10
2022-09-05T17:17:44.051Z,9.50
2022-09-05T17:20:47.444Z,13.60
2022-09-05T17:27:51.172Z,17.20
2022-09-05T17:33:45.284Z,32.30
2022-09-05T17:39:44.515Z,41.90
2022-09-05T17:46:15.385Z,47.70
2022-09-05T17:49:27.895Z,50.60
2022-09-05T17:52:24.570Z,54.00
2022-09-05T17:54:57.402Z,56.20
2022-09-05T17:58:14.184Z,57.80
2022-09-05T18:01:34.887Z,60.60
2022-09-05T18:04:37.197Z,63.00
2022-09-05T18:11:08.910Z,67.00
2022-09-05T18:14:24.611Z,69.80
2022-09-05T18:17:37.217Z,71.80
2022-09-05T18:22:06.287Z,73.60
2022-09-05T18:24:04.426Z,76.20
2022-09-05T18:26:45.316Z,78.90
2022-09-05T18:29:57.895Z,81.90
2022-09-05T18:33:55.923Z,82.70
2022-09-05T18:42:41.422Z,86.50
2022-09-05T18:46:19.069Z,88.70
2022-09-05T18:48:29.989Z,90.10
2022-09-05T18:51:35.215Z,91.30
2022-09-05T18:54:20.724Z,92.20
2022-09-05T18:57:27.293Z,93.00
2022-09-05T19:00:08.028Z,93.50
2022-09-05T19:02:58.829Z,93.60
2022-09-05T19:05:49.804Z,94.90
2022-09-05T19:08:28.630Z,95.60
2022-09-05T19:11:28.476Z,95.80
2022-09-05T19:14:28.790Z,96.20
2022-09-05T19:17:07.508Z,96.50
2022-09-05T19:20:31.501Z,96.90
2022-09-05T19:23:13.236Z,96.70
2022-09-05T19:26:08.244Z,96.90
2022-09-05T19:36:50.269Z,97.30
2022-09-05T19:37:06.831Z,98.50
2022-09-05T19:38:19.532Z,99.20
2022-09-05T19:47:27.464Z,99.90
2022-09-05T19:47:38.727Z,99.90
2022-09-05T19:47:38.913Z,99.90
2022-09-05T19:50:07.757Z,99.90
2022-09-05T19:52:41.915Z,99.90
2022-09-05T19:55:22.250Z,99.90
2022-09-05T19:58:19.174Z,99.90
2022-09-05T20:01:12.118Z,99.90
2022-09-05T20:03:47.424Z,99.90
2022-09-05T20:06:36.723Z,99.90
2022-09-05T20:09:32.903Z,99.90
2022-09-05T20:12:28.295Z,99.90
2022-09-05T20:14:59.189Z,99.90
2022-09-05T20:17:34.615Z,99.90
2022-09-05T20:20:31.404Z,99.90
2022-09-05T20:23:07.454Z,99.90
2022-09-05T20:25:52.199Z,99.90
2022-09-05T20:28:30.235Z,99.90
2022-09-05T20:31:23.569Z,99.90
2022-09-05T20:34:11.977Z,99.90
2022-09-05T20:43:15.327Z,99.90
2022-09-05T20:43:30.952Z,99.90
2022-09-05T20:43:37.355Z,99.90
2022-09-05T20:51:27.935Z,99.90
2022-09-05T20:54:09.741Z,99.90
2022-09-05T20:54:17.181Z,99.90
2022-09-05T20:55:42.500Z,99.90
2022-09-05T20:58:12.576Z,99.90
2022-09-05T21:01:20.465Z,99.90
2022-09-05T21:03:36.772Z,99.90
2022-09-05T21:06:22.105Z,99.90
2022-09-05T21:08:51.053Z,99.90
2022-09-05T21:11:29.431Z,99.90
2022-09-05T21:14:00.781Z,99.90
2022-09-05T21:16:31.715Z,99.90
2022-09-05T21:18:59.878Z,99.90
2022-09-05T21:21:31.268Z,99.90
2022-09-05T21:24:17.432Z,99.90
2022-09-05T21:26:48.423Z,99.90
2022-09-05T21:29:18.272Z,99.90
2022-09-05T21:31:54.968Z,99.90
2022-09-05T21:34:30.195Z,99.90
2022-09-05T21:37:06.897Z,99.90
2022-09-05T21:39:40.361Z,99.90
2022-09-05T21:45:19.651Z,99.90
2022-09-05T21:47:40.904Z,99.90
2022-09-05T21:48:00.957Z,99.90
2022-09-05T21:50:34.116Z,99.90
2022-09-05T21:53:21.452Z,99.90
2022-09-05T21:59:19.473Z,99.90
2022-09-05T21:59:26.708Z,99.90
2022-09-05T22:01:50.744Z,99.90
2022-09-05T22:04:21.304Z,99.90
2022-09-05T22:06:49.638Z,99.90
2022-09-05T22:09:19.981Z,99.90
2022-09-05T22:11:51.494Z,99.90
2022-09-05T22:14:20.688Z,99.90
2022-09-05T22:16:50.633Z,99.90
2022-09-05T22:19:36.803Z,99.90
2022-09-05T22:22:15.796Z,99.90
2022-09-05T22:24:50.011Z,99.90
2022-09-05T22:27:20.006Z,99.90
2022-09-05T22:29:50.334Z,99.90
2022-09-05T22:32:28.534Z,99.90
2022-09-05T22:35:27.330Z,99.90
2022-09-05T22:37:59.173Z,99.90
2022-09-05T22:40:29.812Z,99.90
2022-09-05T22:42:58.852Z,99.90
2022-09-05T22:45:27.492Z,99.90
2022-09-05T22:47:55.697Z,99.90
2022-09-05T22:50:24.625Z,99.90
2022-09-05T22:52:53.037Z,99.90
2022-09-05T22:55:21.080Z,99.90
2022-09-05T22:57:51.019Z,99.90
2022-09-05T23:00:19.195Z,99.90
2022-09-05T23:02:52.160Z,99.90
2022-09-05T23:05:21.148Z,99.90
2022-09-05T23:07:49.091Z,99.90
2022-09-05T23:10:17.579Z,99.90
2022-09-05T23:12:46.257Z,99.90
2022-09-05T23:15:16.136Z,99.90
2022-09-05T23:17:44.121Z,99.90
2022-09-05T23:20:12.409Z,99.90
2022-09-05T23:22:40.455Z,99.90
2022-09-05T23:25:09.770Z,99.90
2022-09-05T23:27:38.158Z,99.90
2022-09-05T23:30:08.060Z,99.90
2022-09-05T23:32:37.782Z,99.90
2022-09-05T23:35:06.341Z,99.90
2022-09-05T23:37:34.285Z,99.90
2022-09-05T23:40:02.570Z,99.90
2022-09-05T23:42:30.857Z,99.90
2022-09-05T23:44:58.866Z,99.90
2022-09-05T23:47:29.007Z,99.90
2022-09-05T23:49:59.079Z,99.90
2022-09-05T23:52:27.099Z,99.90
2022-09-05T23:54:55.087Z,99.90
2022-09-05T23:57:23.943Z,99.90
2022-09-05T23:59:52.929Z,99.90
